.
WxDataArchive / Data Records for 2014-12-16
2014-12-15 December 2014 2014-12-17

Data Records for Tuesday, 16 December 2014

Time	Temp	Chill	HIndex	Humid	Dewpt	 Wind 	HiWind	WindDir	Rain 	Barom
-----	----	-----	------	-----	-----	------	------	-------	-----	-----
00:00	43.3	43.3	43.3	94	41.7	0	1	112	0.00	29.734 
00:05	43.3	43.3	43.3	94	41.7	0	1	112	0.00	29.734 
00:10	43.3	43.3	43.3	94	41.7	0	1	112	0.00	29.734 
00:15	43.2	43.2	43.2	94	41.6	0	1	112	0.00	29.731 
00:20	43.2	43.2	43.2	94	41.6	0	1	112	0.00	29.731 
00:25	43.2	43.2	43.2	94	41.6	0	1	112	0.00	29.731 
00:30	43.2	43.2	43.2	94	41.6	0	2	112	0.00	29.722 
00:35	43.2	43.2	43.2	94	41.6	0	2	112	0.00	29.722 
00:40	43.2	43.2	43.2	95	41.9	0	2	112	0.00	29.722 
00:45	43.1	43.1	43.1	95	41.8	0	1	112	0.00	29.718 
00:50	43.1	43.1	43.1	95	41.8	0	2	112	0.00	29.718 
00:55	43.1	43.1	43.1	95	41.8	1	3	112	0.00	29.718 
01:00	43.1	43.1	43.1	95	41.8	0	3	112	0.00	29.709 
01:05	43.1	43.1	43.1	95	41.8	0	2	112	0.00	29.709 
01:10	43.1	43.1	43.1	95	41.8	1	3	112	0.00	29.709 
01:15	43.1	43.1	43.1	95	41.8	0	1	112	0.00	29.702 
01:20	43.1	43.1	43.1	95	41.8	0	1	112	0.00	29.702 
01:25	42.9	42.9	42.9	95	41.6	0	1	112	0.00	29.702 
01:30	42.9	42.9	42.9	95	41.6	0	1	112	0.00	29.699 
01:35	42.9	42.9	42.9	95	41.6	0	1	112	0.00	29.699 
01:40	42.9	42.9	42.9	95	41.6	0	1	112	0.00	29.699 
01:45	42.9	42.9	42.9	95	41.6	0	1	112	0.00	29.698 
01:50	42.9	42.9	42.9	95	41.6	0	1	112	0.00	29.698 
01:55	42.9	42.9	42.9	95	41.6	0	1	112	0.00	29.698 
02:00	42.9	42.9	42.9	95	41.6	0	3	112	0.00	29.691 
02:05	42.9	42.9	42.9	95	41.6	0	1	112	0.00	29.691 
02:10	42.9	42.9	42.9	95	41.6	0	1	112	0.00	29.691 
02:15	43.1	43.1	43.1	95	41.8	0	1	112	0.00	29.694 
02:20	43.1	43.1	43.1	95	41.8	0	1	112	0.01	29.694 
02:25	43.1	43.1	43.1	95	41.8	0	0	---	0.00	29.694 
02:30	43.1	43.1	43.1	95	41.8	0	0	---	0.00	29.688 
02:35	43.1	43.1	43.1	95	41.8	0	0	---	0.00	29.688 
02:40	43.1	43.1	43.1	95	41.8	0	0	---	0.00	29.688 
02:45	43.1	43.1	43.1	95	41.8	0	1	112	0.00	29.688 
02:50	43.1	43.1	43.1	95	41.8	0	1	112	0.00	29.688 
02:55	43.1	43.1	43.1	95	41.8	0	0	---	0.00	29.688 
03:00	43.1	43.1	43.1	95	41.8	0	0	---	0.00	29.684 
03:05	43.2	43.2	43.2	95	41.9	0	0	---	0.00	29.684 
03:10	43.2	43.2	43.2	95	41.9	0	1	112	0.00	29.684 
03:15	43.2	43.2	43.2	95	41.9	0	0	---	0.00	29.684 
03:20	43.2	43.2	43.2	95	41.9	0	1	112	0.00	29.684 
03:25	43.2	43.2	43.2	95	41.9	0	1	112	0.00	29.684 
03:30	43.2	43.2	43.2	95	41.9	0	1	112	0.00	29.672 
03:35	43.2	43.2	43.2	95	41.9	0	0	---	0.00	29.672 
03:40	43.2	43.2	43.2	96	42.1	0	1	112	0.00	29.672 
03:45	43.3	43.3	43.3	96	42.2	0	0	---	0.00	29.667 
03:50	43.3	43.3	43.3	96	42.2	0	2	112	0.00	29.667 
03:55	43.3	43.3	43.3	96	42.2	0	0	---	0.00	29.667 
04:00	43.3	43.3	43.3	96	42.2	0	0	---	0.00	29.668 
04:05	43.3	43.3	43.3	95	42.0	0	0	---	0.00	29.668 
04:10	43.3	43.3	43.3	96	42.2	0	0	---	0.00	29.668 
04:15	43.3	43.3	43.3	96	42.2	0	0	---	0.01	29.663 
04:20	43.3	43.3	43.3	96	42.2	0	0	---	0.01	29.663 
04:25	43.3	43.3	43.3	96	42.2	0	0	---	0.00	29.663 
04:30	43.3	43.3	43.3	96	42.2	0	0	---	0.00	29.656 
04:35	43.3	43.3	43.3	96	42.2	0	0	---	0.00	29.656 
04:40	43.3	43.3	43.3	96	42.2	0	0	---	0.00	29.656 
04:45	43.5	43.5	43.5	96	42.4	0	0	---	0.01	29.652 
04:50	43.5	43.5	43.5	96	42.4	0	0	---	0.00	29.652 
04:55	43.5	43.5	43.5	96	42.4	0	0	---	0.01	29.652 
05:00	43.5	43.5	43.5	96	42.4	0	0	---	0.00	29.644 
05:05	43.6	43.6	43.6	96	42.5	0	0	---	0.01	29.644 
05:10	43.6	43.6	43.6	96	42.5	0	0	---	0.00	29.644 
05:15	43.6	43.6	43.6	96	42.5	0	0	---	0.00	29.638 
05:20	43.6	43.6	43.6	96	42.5	0	0	---	0.00	29.638 
05:25	43.8	43.8	43.8	96	42.7	0	0	---	0.01	29.638 
05:30	43.8	43.8	43.8	96	42.7	0	0	---	0.00	29.635 
05:35	43.8	43.8	43.8	96	42.7	0	0	---	0.01	29.635 
05:40	43.8	43.8	43.8	96	42.7	0	0	---	0.00	29.635 
05:45	43.8	43.8	43.8	96	42.7	0	0	---	0.00	29.637 
05:50	43.8	43.8	43.8	96	42.7	0	0	---	0.00	29.637 
05:55	43.8	43.8	43.8	96	42.7	0	0	---	0.01	29.637 
06:00	43.8	43.8	43.8	96	42.7	0	0	---	0.00	29.640 
06:05	43.8	43.8	43.8	96	42.7	0	0	---	0.00	29.640 
06:10	43.8	43.8	43.8	96	42.7	0	0	---	0.00	29.640 
06:15	43.8	43.8	43.8	96	42.7	0	0	---	0.01	29.639 
06:20	43.9	43.9	43.9	96	42.8	0	0	---	0.00	29.639 
06:25	43.8	43.8	43.8	96	42.7	0	0	---	0.00	29.639 
06:30	43.8	43.8	43.8	96	42.7	0	0	---	0.01	29.641 
06:35	43.9	43.9	43.9	96	42.8	0	0	---	0.00	29.641 
06:40	43.9	43.9	43.9	96	42.8	0	0	---	0.00	29.641 
06:45	43.9	43.9	43.9	96	42.8	0	0	---	0.00	29.641 
06:50	44.1	44.1	44.1	96	43.0	0	0	---	0.00	29.641 
06:55	44.2	44.2	44.2	96	43.1	0	0	---	0.00	29.641 
07:00	44.2	44.2	44.2	96	43.1	0	0	---	0.00	29.641 
07:05	44.3	44.3	44.3	96	43.2	0	0	---	0.00	29.641 
07:10	44.3	44.3	44.3	96	43.2	0	0	---	0.00	29.641 
07:15	44.5	44.5	44.5	96	43.4	0	0	---	0.00	29.646 
07:20	44.5	44.5	44.5	96	43.4	0	0	---	0.00	29.646 
07:25	44.6	44.6	44.6	96	43.5	0	1	112	0.00	29.646 
07:30	44.8	44.8	44.8	96	43.7	0	1	112	0.00	29.648 
07:35	44.9	44.9	44.9	96	43.8	0	1	112	0.00	29.648 
07:40	45.1	45.1	45.1	96	44.0	0	3	112	0.00	29.648 
07:45	45.2	45.2	45.2	96	44.1	0	4	270	0.00	29.650 
07:50	45.2	45.2	45.2	96	44.1	1	3	270	0.00	29.650 
07:55	45.4	45.4	45.4	96	44.3	1	2	270	0.00	29.650 
08:00	45.4	45.4	45.4	96	44.3	1	4	270	0.00	29.650 
08:05	45.4	45.4	45.4	96	44.3	1	3	270	0.00	29.650 
08:10	45.4	45.4	45.4	96	44.3	1	3	270	0.00	29.650 
08:15	45.4	45.4	45.4	96	44.3	0	3	248	0.00	29.654 
08:20	45.4	45.4	45.4	96	44.3	0	2	248	0.00	29.654 
08:25	45.4	45.4	45.4	96	44.3	0	1	248	0.00	29.654 
08:30	45.4	45.4	45.4	96	44.3	1	3	248	0.01	29.657 
08:35	45.4	45.4	45.4	96	44.3	0	1	248	0.00	29.657 
08:40	45.5	45.5	45.5	96	44.4	0	2	248	0.00	29.657 
08:45	45.5	45.5	45.5	96	44.4	0	2	248	0.00	29.661 
08:50	45.5	45.5	45.5	96	44.4	1	3	248	0.00	29.661 
08:55	45.4	45.4	45.4	96	44.3	1	3	248	0.00	29.661 
09:00	45.4	45.4	45.4	96	44.3	0	2	248	0.00	29.669 
09:05	45.4	45.4	45.4	96	44.3	0	2	248	0.01	29.669 
09:10	45.4	45.4	45.4	96	44.3	1	3	248	0.00	29.669 
09:15	45.4	45.4	45.4	96	44.3	1	5	248	0.00	29.676 
09:20	45.4	45.4	45.4	96	44.3	1	4	248	0.00	29.676 
09:25	45.4	45.4	45.4	96	44.3	0	2	248	0.00	29.676 
09:30	45.4	45.4	45.4	96	44.3	2	7	248	0.00	29.682 
09:35	45.2	45.2	45.2	96	44.1	1	4	248	0.00	29.682 
09:40	45.1	45.1	45.1	96	44.0	1	5	248	0.00	29.682 
09:45	44.9	44.9	44.9	96	43.8	1	4	248	0.00	29.687 
09:50	44.6	44.6	44.6	96	43.5	1	5	248	0.00	29.687 
09:55	44.5	44.5	44.5	96	43.4	1	4	248	0.00	29.687 
10:00	44.3	44.3	44.3	96	43.2	1	3	270	0.00	29.699 
10:05	44.1	44.1	44.1	96	43.0	2	5	270	0.00	29.699 
10:10	43.9	43.9	43.9	96	42.8	2	6	270	0.00	29.699 
10:15	43.8	43.8	43.8	96	42.7	2	5	270	0.00	29.710 
10:20	43.6	43.6	43.6	96	42.5	2	5	270	0.00	29.710 
10:25	43.5	43.5	43.5	96	42.4	1	6	270	0.01	29.710 
10:30	43.3	43.3	43.3	96	42.2	1	3	270	0.00	29.717 
10:35	43.3	43.3	43.3	96	42.2	1	4	270	0.00	29.717 
10:40	43.3	43.3	43.3	96	42.2	1	3	270	0.01	29.717 
10:45	43.5	43.5	43.5	96	42.4	1	3	270	0.00	29.720 
10:50	43.3	43.3	43.3	96	42.2	1	3	270	0.00	29.720 
10:55	43.2	43.2	43.2	96	42.1	2	5	270	0.00	29.720 
11:00	43.2	43.2	43.2	96	42.1	1	5	248	0.00	29.727 
11:05	43.1	43.1	43.1	96	42.0	1	4	248	0.01	29.727 
11:10	43.1	43.1	43.1	95	41.8	2	5	248	0.00	29.727 
11:15	42.9	42.9	42.9	96	41.8	1	4	248	0.00	29.729 
11:20	42.9	42.9	42.9	96	41.8	2	6	248	0.00	29.729 
11:25	42.8	42.8	42.8	96	41.7	2	7	248	0.00	29.729 
11:30	42.6	42.6	42.6	95	41.3	2	6	248	0.00	29.729 
11:35	42.6	42.6	42.6	96	41.5	1	6	248	0.00	29.729 
11:40	42.8	42.8	42.8	96	41.7	1	3	248	0.00	29.729 
11:45	42.8	42.8	42.8	96	41.7	1	4	248	0.00	29.729 
11:50	42.8	42.8	42.8	95	41.5	1	5	248	0.00	29.729 
11:55	42.8	42.8	42.8	95	41.5	1	3	248	0.00	29.729 
12:00	42.8	42.8	42.8	96	41.7	1	6	248	0.00	29.732 
12:05	42.6	42.6	42.6	95	41.3	1	3	248	0.01	29.732 
12:10	42.6	42.6	42.6	95	41.3	1	4	248	0.00	29.732 
12:15	42.6	42.6	42.6	95	41.3	1	3	248	0.00	29.730 
12:20	42.6	42.6	42.6	95	41.3	1	5	248	0.00	29.730 
12:25	42.6	42.6	42.6	95	41.3	1	4	270	0.00	29.730 
12:30	42.5	42.5	42.5	95	41.2	1	5	248	0.00	29.732 
12:35	42.3	42.3	42.3	95	41.0	2	5	248	0.00	29.732 
12:40	42.3	42.3	42.3	95	41.0	1	4	248	0.00	29.732 
12:45	42.3	42.3	42.3	95	41.0	1	4	248	0.01	29.735 
12:50	42.3	42.3	42.3	95	41.0	2	5	248	0.00	29.735 
12:55	42.3	42.3	42.3	95	41.0	1	4	270	0.00	29.735 
13:00	42.3	42.3	42.3	95	41.0	1	4	270	0.00	29.735 
13:05	42.3	42.3	42.3	95	41.0	1	4	248	0.00	29.735 
13:10	42.3	42.3	42.3	95	41.0	1	4	248	0.00	29.735 
13:15	42.3	42.3	42.3	95	41.0	1	4	248	0.00	29.739 
13:20	42.3	42.3	42.3	95	41.0	1	4	248	0.00	29.739 
13:25	42.3	42.3	42.3	95	41.0	1	6	248	0.00	29.739 
13:30	42.3	42.3	42.3	95	41.0	1	4	248	0.00	29.740 
13:35	42.5	42.5	42.5	95	41.2	2	7	248	0.00	29.740 
13:40	42.5	42.5	42.5	95	41.2	2	5	248	0.00	29.740 
13:45	42.5	42.5	42.5	95	41.2	1	3	248	0.00	29.737 
13:50	42.5	42.5	42.5	95	41.2	1	3	248	0.00	29.737 
13:55	42.5	42.5	42.5	95	41.2	2	6	248	0.00	29.737 
14:00	42.6	42.6	42.6	95	41.3	1	4	270	0.00	29.741 
14:05	42.6	42.6	42.6	95	41.3	0	3	270	0.00	29.741 
14:10	42.9	42.9	42.9	95	41.6	0	3	270	0.00	29.741 
14:15	42.9	42.9	42.9	95	41.6	1	4	270	0.00	29.747 
14:20	42.9	42.9	42.9	95	41.6	1	4	270	0.00	29.747 
14:25	42.9	42.9	42.9	95	41.6	1	6	270	0.00	29.747 
14:30	42.9	42.9	42.9	95	41.6	2	6	270	0.00	29.751 
14:35	42.9	42.9	42.9	95	41.6	1	3	270	0.00	29.751 
14:40	42.9	42.9	42.9	95	41.6	1	4	270	0.00	29.751 
14:45	42.9	42.9	42.9	95	41.6	1	4	248	0.00	29.755 
14:50	42.9	42.9	42.9	95	41.6	1	3	248	0.00	29.755 
14:55	42.9	42.9	42.9	95	41.6	1	3	248	0.00	29.755 
15:00	42.9	42.9	42.9	95	41.6	0	3	248	0.00	29.764 
15:05	43.1	43.1	43.1	95	41.8	1	3	248	0.00	29.764 
15:10	43.1	43.1	43.1	95	41.8	1	4	248	0.00	29.764 
15:15	43.1	43.1	43.1	95	41.8	1	5	270	0.00	29.766 
15:20	43.2	43.2	43.2	95	41.9	0	1	270	0.00	29.766 
15:25	43.2	43.2	43.2	95	41.9	0	3	270	0.00	29.766 
15:30	43.2	43.2	43.2	95	41.9	1	3	270	0.00	29.774 
15:35	43.2	43.2	43.2	95	41.9	1	2	270	0.00	29.774 
15:40	43.3	43.3	43.3	95	42.0	0	1	270	0.00	29.774 
15:45	43.3	43.3	43.3	95	42.0	0	3	248	0.00	29.781 
15:50	43.3	43.3	43.3	95	42.0	0	3	248	0.00	29.781 
15:55	43.3	43.3	43.3	95	42.0	1	4	248	0.00	29.781 
16:00	43.5	43.5	43.5	95	42.2	0	1	248	0.00	29.791 
16:05	43.5	43.5	43.5	95	42.2	0	3	248	0.00	29.791 
16:10	43.6	43.6	43.6	95	42.3	0	2	248	0.00	29.791 
16:15	43.6	43.6	43.6	95	42.3	0	2	248	0.00	29.796 
16:20	43.8	43.8	43.8	95	42.5	1	4	270	0.00	29.796 
16:25	43.8	43.8	43.8	95	42.5	1	3	270	0.00	29.796 
16:30	43.9	43.9	43.9	95	42.6	1	3	270	0.00	29.807 
16:35	43.9	43.9	43.9	95	42.6	1	4	270	0.00	29.807 
16:40	43.9	43.9	43.9	95	42.6	1	4	270	0.00	29.807 
16:45	44.1	44.1	44.1	95	42.8	1	4	270	0.00	29.812 
16:50	44.1	44.1	44.1	95	42.8	1	3	270	0.00	29.812 
16:55	44.1	44.1	44.1	95	42.8	1	3	248	0.00	29.812 
17:00	44.1	44.1	44.1	95	42.8	1	4	338	0.00	29.826 
17:05	44.2	44.2	44.2	94	42.6	0	2	338	0.00	29.826 
17:10	44.2	44.2	44.2	94	42.6	0	2	338	0.00	29.826 
17:15	44.2	44.2	44.2	94	42.6	0	1	338	0.00	29.830 
17:20	44.2	44.2	44.2	94	42.6	1	2	338	0.00	29.830 
17:25	44.2	44.2	44.2	94	42.6	0	2	338	0.01	29.830 
17:30	44.2	44.2	44.2	94	42.6	0	2	338	0.00	29.840 
17:35	44.2	44.2	44.2	94	42.6	1	3	338	0.00	29.840 
17:40	44.2	44.2	44.2	94	42.6	1	3	248	0.00	29.840 
17:45	44.1	44.1	44.1	94	42.5	1	4	248	0.00	29.843 
17:50	44.1	44.1	44.1	94	42.5	1	3	248	0.00	29.843 
17:55	44.1	44.1	44.1	94	42.5	2	3	248	0.00	29.843 
18:00	44.1	44.1	44.1	94	42.5	1	5	270	0.00	29.856 
18:05	44.1	44.1	44.1	94	42.5	2	4	292	0.00	29.856 
18:10	44.1	44.1	44.1	94	42.5	2	4	292	0.00	29.856 
18:15	44.1	44.1	44.1	93	42.2	2	5	270	0.00	29.866 
18:20	43.9	43.9	43.9	93	42.0	1	4	270	0.00	29.866 
18:25	43.9	43.9	43.9	92	41.7	1	4	270	0.00	29.866 
18:30	43.9	43.9	43.9	92	41.7	1	4	248	0.00	29.875 
18:35	43.8	43.8	43.8	92	41.6	0	3	248	0.00	29.875 
18:40	43.6	43.6	43.6	92	41.4	1	5	248	0.00	29.875 
18:45	43.3	43.3	43.3	92	41.1	2	5	248	0.00	29.883 
18:50	43.2	43.2	43.2	92	41.0	1	3	248	0.00	29.883 
18:55	42.9	42.9	42.9	92	40.7	2	4	248	0.00	29.883 
19:00	42.8	42.8	42.8	92	40.6	1	3	270	0.00	29.890 
19:05	42.6	42.6	42.6	93	40.7	2	5	270	0.01	29.890 
19:10	42.2	42.2	42.2	93	40.3	3	9	248	0.00	29.890 
19:15	42.1	42.1	42.1	93	40.2	2	5	248	0.00	29.898 
19:20	41.8	41.8	41.8	93	39.9	2	6	270	0.00	29.898 
19:25	41.6	41.6	41.6	93	39.7	3	7	248	0.01	29.898 
19:30	41.5	41.5	41.5	93	39.6	2	4	270	0.00	29.911 
19:35	41.3	41.3	41.3	93	39.4	2	5	270	0.00	29.911 
19:40	41.1	41.1	41.1	93	39.2	3	6	248	0.00	29.911 
19:45	40.9	40.9	40.9	93	39.0	2	6	270	0.00	29.924 
19:50	40.8	40.8	40.8	93	38.9	2	5	248	0.00	29.924 
19:55	40.6	40.6	40.6	93	38.7	1	4	270	0.00	29.924 
20:00	40.5	40.5	40.5	93	38.6	1	4	248	0.01	29.931 
20:05	40.3	40.3	40.3	94	38.7	1	3	248	0.00	29.931 
20:10	40.2	40.2	40.2	94	38.6	1	4	270	0.00	29.931 
20:15	40.1	40.1	40.1	94	38.5	2	4	270	0.00	29.941 
20:20	39.8	39.8	39.8	94	38.2	2	4	270	0.00	29.941 
20:25	39.6	39.6	39.6	94	38.0	2	5	270	0.00	29.941 
20:30	39.5	39.5	39.5	94	37.9	1	4	248	0.01	29.944 
20:35	39.3	39.3	39.3	94	37.7	2	6	248	0.00	29.944 
20:40	39.3	39.3	39.3	94	37.7	2	6	248	0.00	29.944 
20:45	39.2	39.2	39.2	94	37.6	3	5	270	0.00	29.952 
20:50	39.2	39.2	39.2	94	37.6	2	6	270	0.00	29.952 
20:55	39.1	39.1	39.1	94	37.5	3	5	270	0.00	29.952 
21:00	39.1	39.1	39.1	94	37.5	1	4	270	0.01	29.957 
21:05	38.9	38.9	38.9	94	37.3	2	4	270	0.00	29.957 
21:10	38.9	38.9	38.9	94	37.3	2	4	270	0.00	29.957 
21:15	38.8	38.8	38.8	94	37.2	1	4	292	0.00	29.961 
21:20	38.6	38.6	38.6	94	37.0	1	4	270	0.00	29.961 
21:25	38.6	38.6	38.6	94	37.0	1	5	270	0.00	29.961 
21:30	38.5	38.5	38.5	94	36.9	2	5	248	0.00	29.964 
21:35	38.3	38.3	38.3	94	36.7	2	5	292	0.00	29.964 
21:40	38.3	38.3	38.3	94	36.7	2	5	270	0.00	29.964 
21:45	38.2	38.2	38.2	94	36.6	1	4	270	0.00	29.968 
21:50	38.0	38.0	38.0	94	36.4	2	4	248	0.01	29.968 
21:55	37.9	37.9	37.9	94	36.3	2	5	270	0.00	29.968 
22:00	37.8	37.8	37.8	94	36.2	3	5	270	0.00	29.975 
22:05	37.6	37.6	37.6	94	36.0	3	9	270	0.00	29.975 
22:10	37.6	37.6	37.6	94	36.0	1	4	248	0.00	29.975 
22:15	37.5	37.5	37.5	94	35.9	3	5	270	0.00	29.981 
22:20	37.3	37.3	37.3	94	35.7	2	5	270	0.00	29.981 
22:25	37.2	37.2	37.2	93	35.4	2	5	270	0.00	29.981 
22:30	37.2	37.2	37.2	93	35.4	2	5	270	0.00	29.990 
22:35	36.9	36.9	36.9	93	35.1	2	5	270	0.00	29.990 
22:40	36.8	36.8	36.8	92	34.7	2	5	270	0.00	29.990 
22:45	36.5	36.5	36.5	92	34.4	2	6	270	0.00	29.992 
22:50	36.3	36.3	36.3	92	34.2	2	4	270	0.00	29.992 
22:55	36.2	36.2	36.2	91	33.8	3	5	270	0.00	29.992 
23:00	36.2	36.2	36.2	90	33.6	3	6	270	0.00	29.996 
23:05	36.0	36.0	36.0	90	33.4	2	5	292	0.00	29.996 
23:10	35.9	35.9	35.9	90	33.3	3	7	270	0.00	29.996 
23:15	35.9	35.9	35.9	90	33.3	3	5	270	0.00	30.009 
23:20	35.8	35.8	35.8	89	32.9	3	6	270	0.00	30.009 
23:25	35.6	35.6	35.6	89	32.7	2	5	270	0.00	30.009 
23:30	35.5	35.5	35.5	89	32.6	3	6	292	0.00	30.014 
23:35	35.3	35.3	35.3	89	32.4	3	7	292	0.00	30.014 
23:40	35.3	35.3	35.3	89	32.4	3	5	248	0.00	30.014 
23:45	35.3	35.3	35.3	89	32.4	2	5	315	0.00	30.018 
23:50	35.2	35.2	35.2	89	32.3	3	5	270	0.00	30.018 
23:55	35.0	35.0	35.0	89	32.1	3	5	270	0.00	30.018 

CoCoRaHS
IN-AL-39
A2 Web Hosting
Creative Commons License
GoDaddy
search engine by freefind advanced

loaded 2018-11-22 06:18:55 • last modified 2010-11-18 10:43:29
Privacy PolicyDisclaimer
• wx.awcolley.com is powered by PmWiki v.2002016 •
• all content (unless otherwise noted) © 2018 A W Colley